createdAt,value
2017-01-12T00:00:19.349Z,79.72
2017-01-12T00:01:28.032Z,80.76
2017-01-12T00:02:36.689Z,81.99
2017-01-12T00:03:45.343Z,81.86
2017-01-12T00:04:54.000Z,81.57
2017-01-12T00:06:02.652Z,81.76
2017-01-12T00:07:11.307Z,82.05
2017-01-12T00:08:19.963Z,82.24
2017-01-12T00:09:28.625Z,82.81
2017-01-12T00:10:37.287Z,81.57
2017-01-12T00:11:45.948Z,82.14
2017-01-12T00:12:54.607Z,82.71
2017-01-12T00:14:03.259Z,83.47
2017-01-12T00:15:11.915Z,82.24
2017-01-12T00:16:20.571Z,82.05
2017-01-12T00:17:29.230Z,83
2017-01-12T00:18:37.886Z,82.33
2017-01-12T00:19:46.537Z,83.47
2017-01-12T00:20:55.194Z,83.66
2017-01-12T00:22:03.886Z,83.94
2017-01-12T00:23:12.548Z,85.17
2017-01-12T00:24:21.205Z,85.17
2017-01-12T00:25:29.866Z,85.36
2017-01-12T00:26:38.521Z,85.93
2017-01-12T00:27:47.196Z,86.12
2017-01-12T00:28:55.853Z,86.31
2017-01-12T00:30:04.505Z,85.74
2017-01-12T00:31:13.163Z,83.85
2017-01-12T00:32:21.819Z,85.27
2017-01-12T00:33:30.480Z,85.36
2017-01-12T00:34:39.132Z,85.17
2017-01-12T00:35:47.785Z,84.8
2017-01-12T00:36:56.441Z,84.61
2017-01-12T00:38:05.096Z,84.74
2017-01-12T00:39:13.751Z,83.61
2017-01-12T00:40:22.407Z,83.32
2017-01-12T00:41:31.061Z,83.42
2017-01-12T00:42:39.715Z,84.94
2017-01-12T00:43:48.373Z,85.65
2017-01-12T00:44:57.027Z,85.93
2017-01-12T00:46:05.689Z,84.89
2017-01-12T00:47:14.347Z,84.7
2017-01-12T00:48:23.007Z,84.61
2017-01-12T00:49:31.663Z,86.03
2017-01-12T00:50:40.317Z,85.65
2017-01-12T00:51:48.979Z,85.84
2017-01-12T00:52:57.633Z,84.89
2017-01-12T00:54:06.292Z,84.74
2017-01-12T00:55:14.945Z,84.17
2017-01-12T00:56:23.601Z,83.8
2017-01-12T00:57:32.256Z,84.17
2017-01-12T00:58:40.919Z,84.74
2017-01-12T00:59:49.570Z,85.88
2017-01-12T01:00:58.223Z,84.7
2017-01-12T01:02:06.881Z,85.31
2017-01-12T01:03:15.533Z,86.12
2017-01-12T01:04:24.189Z,85.84
2017-01-12T01:05:32.844Z,85.55
2017-01-12T01:06:41.504Z,85.03
2017-01-12T01:07:50.159Z,84.84
2017-01-12T01:08:58.811Z,84.74
2017-01-12T01:10:07.472Z,85.03
2017-01-12T01:11:16.130Z,84.94
2017-01-12T01:12:24.783Z,84.74
2017-01-12T01:13:33.455Z,83.98
2017-01-12T01:14:42.111Z,85.5
2017-01-12T01:15:50.764Z,85.78
2017-01-12T01:16:59.420Z,86.22
2017-01-12T01:18:08.077Z,86.69
2017-01-12T01:19:16.730Z,86.12
2017-01-12T01:20:25.396Z,86.41
2017-01-12T01:21:34.440Z,85.27
2017-01-12T01:22:43.118Z,85.78
2017-01-12T01:23:51.772Z,84.51
2017-01-12T01:25:00.421Z,85.31
2017-01-12T01:26:09.075Z,84.8
2017-01-12T01:27:17.731Z,86.26
2017-01-12T01:28:26.394Z,87.26
2017-01-12T01:29:35.056Z,86.03
2017-01-12T01:30:43.718Z,85.74
2017-01-12T01:31:52.370Z,86.22
2017-01-12T01:33:01.023Z,86.41
2017-01-12T01:34:09.674Z,86.69
2017-01-12T01:35:18.325Z,85.74
2017-01-12T01:36:26.980Z,85.13
2017-01-12T01:37:35.638Z,86.26
2017-01-12T01:38:44.294Z,86.16
2017-01-12T01:39:52.954Z,86.41
2017-01-12T01:41:01.608Z,85.93
2017-01-12T01:42:10.262Z,86.22
2017-01-12T01:43:18.917Z,86.22
2017-01-12T01:44:27.571Z,85.84
2017-01-12T01:45:36.229Z,86.45
2017-01-12T01:46:44.883Z,86.26
2017-01-12T01:47:53.536Z,86.41
2017-01-12T01:49:02.200Z,86.6
2017-01-12T01:50:10.858Z,86.41
2017-01-12T01:51:19.514Z,86.03
2017-01-12T01:52:28.167Z,86.22
2017-01-12T01:53:36.824Z,86.31
2017-01-12T01:54:45.496Z,85.93
2017-01-12T01:55:54.155Z,87.26
2017-01-12T01:57:02.807Z,87.07
2017-01-12T01:58:11.496Z,87.07
2017-01-12T01:59:20.183Z,87.16
2017-01-12T02:00:28.832Z,86.69
2017-01-12T02:01:37.492Z,86.22
2017-01-12T02:02:46.152Z,86.31
2017-01-12T02:03:54.815Z,86.22
2017-01-12T02:05:03.472Z,85.88
2017-01-12T02:06:12.122Z,85.65
2017-01-12T02:07:20.778Z,86.12
2017-01-12T02:08:29.430Z,86.12
2017-01-12T02:09:38.087Z,85.65
2017-01-12T02:10:46.748Z,85.97
2017-01-12T02:11:55.404Z,85.22
2017-01-12T02:13:04.059Z,85.6
2017-01-12T02:14:12.721Z,85.03
2017-01-12T02:15:21.383Z,85.13
2017-01-12T02:16:30.040Z,84.74
2017-01-12T02:17:38.697Z,83.8
2017-01-12T02:18:47.355Z,84.36
2017-01-12T02:19:56.009Z,83.89
2017-01-12T02:21:04.663Z,83.98
2017-01-12T02:22:13.323Z,84.36
2017-01-12T02:23:21.981Z,84.55
2017-01-12T02:24:30.635Z,83.98
2017-01-12T02:25:39.295Z,84.27
2017-01-12T02:26:47.950Z,84.36
2017-01-12T02:27:56.642Z,83.89
2017-01-12T02:29:05.296Z,84.55
2017-01-12T02:30:13.950Z,83.32
2017-01-12T02:31:22.605Z,83.98
2017-01-12T02:32:31.260Z,83.42
2017-01-12T02:33:39.912Z,82.56
2017-01-12T02:34:48.566Z,82.98
2017-01-12T02:35:57.216Z,82.79
2017-01-12T02:37:05.874Z,83.46
2017-01-12T02:38:14.529Z,83.23
2017-01-12T02:39:23.189Z,83.89
2017-01-12T02:40:31.842Z,84.46
2017-01-12T02:41:40.497Z,84.65
2017-01-12T02:42:49.155Z,84.84
2017-01-12T02:43:57.810Z,84.84
2017-01-12T02:45:06.496Z,83.98
2017-01-12T02:46:15.157Z,83.7
2017-01-12T02:47:23.814Z,84.27
2017-01-12T02:48:32.472Z,84.84
2017-01-12T02:49:41.124Z,84.84
2017-01-12T02:50:49.779Z,84.65
2017-01-12T02:51:58.434Z,84.84
2017-01-12T02:53:07.097Z,84.65
2017-01-12T02:54:15.756Z,84.46
2017-01-12T02:55:24.421Z,84.27
2017-01-12T02:56:33.103Z,84.94
2017-01-12T02:57:41.758Z,84.74
2017-01-12T02:58:50.412Z,83.7
2017-01-12T02:59:59.069Z,83.98
2017-01-12T03:01:08.116Z,83.32
2017-01-12T03:02:17.153Z,83.23
2017-01-12T03:03:25.813Z,83.98
2017-01-12T03:04:34.473Z,83.23
2017-01-12T03:05:43.132Z,84.36
2017-01-12T03:06:51.787Z,84.55
2017-01-12T03:08:00.453Z,85.5
2017-01-12T03:09:09.145Z,85.5
2017-01-12T03:10:17.806Z,85.69
2017-01-12T03:11:26.459Z,85.31
2017-01-12T03:12:35.120Z,84.65
2017-01-12T03:13:43.774Z,85.78
2017-01-12T03:14:52.429Z,85.13
2017-01-12T03:16:01.083Z,84.74
2017-01-12T03:17:09.737Z,85.22
2017-01-12T03:18:18.400Z,84.17
2017-01-12T03:19:27.053Z,84.27
2017-01-12T03:20:35.713Z,84.74
2017-01-12T03:21:44.369Z,83.98
2017-01-12T03:22:53.033Z,83.8
2017-01-12T03:24:01.693Z,82.85
2017-01-12T03:25:10.347Z,83.51
2017-01-12T03:26:18.999Z,84.5
2017-01-12T03:27:27.685Z,83.32
2017-01-12T03:28:36.369Z,84.88
2017-01-12T03:29:45.032Z,83.8
2017-01-12T03:30:53.690Z,83.36
2017-01-12T03:32:02.345Z,84.41
2017-01-12T03:33:11.006Z,84.22
2017-01-12T03:34:19.663Z,84.31
2017-01-12T03:35:28.316Z,83.7
2017-01-12T03:36:36.963Z,84.12
2017-01-12T03:37:45.622Z,83.94
2017-01-12T03:38:54.281Z,83.46
2017-01-12T03:40:02.936Z,83.55
2017-01-12T03:41:11.592Z,83.74
2017-01-12T03:42:20.255Z,84.31
2017-01-12T03:43:28.911Z,84.22
2017-01-12T03:44:37.568Z,83.74
2017-01-12T03:45:46.218Z,84.59
2017-01-12T03:46:54.879Z,84.22
2017-01-12T03:48:03.536Z,83.46
2017-01-12T03:49:12.193Z,83.94
2017-01-12T03:50:20.852Z,84.78
2017-01-12T03:51:29.510Z,84.55
2017-01-12T03:52:38.164Z,85.13
2017-01-12T03:53:46.829Z,83.98
2017-01-12T03:54:55.486Z,84.08
2017-01-12T03:56:04.146Z,84.36
2017-01-12T03:57:12.805Z,84.31
2017-01-12T03:58:21.463Z,84.55
2017-01-12T03:59:30.125Z,84.65
2017-01-12T04:00:38.779Z,85.31
2017-01-12T04:01:47.436Z,85.31
2017-01-12T04:02:56.104Z,85.78
2017-01-12T04:04:04.763Z,85.6
2017-01-12T04:05:13.419Z,84.74
2017-01-12T04:06:22.097Z,85.6
2017-01-12T04:07:30.753Z,85.88
2017-01-12T04:08:39.409Z,86.07
2017-01-12T04:09:48.061Z,86.07
2017-01-12T04:10:56.719Z,86.16
2017-01-12T04:12:05.378Z,85.78
2017-01-12T04:13:14.037Z,86.26
2017-01-12T04:14:22.694Z,85.88
2017-01-12T04:15:31.348Z,84.46
2017-01-12T04:16:40.036Z,85.69
2017-01-12T04:17:48.694Z,85.5
2017-01-12T04:18:57.350Z,83.98
2017-01-12T04:20:06.046Z,84.78
2017-01-12T04:21:15.087Z,83.7
2017-01-12T04:22:23.745Z,82.7
2017-01-12T04:23:32.410Z,84.59
2017-01-12T04:24:41.076Z,84.69
2017-01-12T04:25:49.735Z,84.78
2017-01-12T04:26:58.392Z,85.36
2017-01-12T04:28:07.049Z,85.78
2017-01-12T04:29:15.706Z,87.06
2017-01-12T04:30:24.367Z,86.49
2017-01-12T04:31:33.025Z,85.64
2017-01-12T04:32:41.712Z,85.83
2017-01-12T04:33:50.384Z,85.55
2017-01-12T04:34:59.047Z,84.59
2017-01-12T04:36:07.702Z,84.55
2017-01-12T04:37:16.355Z,85.5
2017-01-12T04:38:25.014Z,85.69
2017-01-12T04:39:33.668Z,85.6
2017-01-12T04:40:42.340Z,86.26
2017-01-12T04:41:50.995Z,86.26
2017-01-12T04:42:59.644Z,86.83
2017-01-12T04:44:08.301Z,86.83
2017-01-12T04:45:16.982Z,86.83
2017-01-12T04:46:25.638Z,86.74
2017-01-12T04:47:34.293Z,86.45
2017-01-12T04:48:42.950Z,87.77
2017-01-12T04:49:51.603Z,87.3
2017-01-12T04:51:00.263Z,86.74
2017-01-12T04:52:08.929Z,86.07
2017-01-12T04:53:17.585Z,87.49
2017-01-12T04:54:26.245Z,89.11
2017-01-12T04:55:34.902Z,87.87
2017-01-12T04:56:43.558Z,88.54
2017-01-12T04:57:52.212Z,87.59
2017-01-12T04:59:00.865Z,88.59
2017-01-12T05:00:09.521Z,88.3
2017-01-12T05:01:18.175Z,87.83
2017-01-12T05:02:26.834Z,87.49
2017-01-12T05:03:35.486Z,88.16
2017-01-12T05:04:44.138Z,87.68
2017-01-12T05:05:52.798Z,87.68
2017-01-12T05:07:01.457Z,87.97
2017-01-12T05:08:10.105Z,87.92
2017-01-12T05:09:18.762Z,88.68
2017-01-12T05:10:27.413Z,88.49
2017-01-12T05:11:36.071Z,88.68
2017-01-12T05:12:44.730Z,89.15
2017-01-12T05:13:53.386Z,90.29
2017-01-12T05:15:02.042Z,90.2
2017-01-12T05:16:10.702Z,90.58
2017-01-12T05:17:19.360Z,90.2
2017-01-12T05:18:28.053Z,90.86
2017-01-12T05:19:36.707Z,90.01
2017-01-12T05:20:45.365Z,90.29
2017-01-12T05:21:54.028Z,90.39
2017-01-12T05:23:02.687Z,90.2
2017-01-12T05:24:11.347Z,89.44
2017-01-12T05:25:20.009Z,89.06
2017-01-12T05:26:28.663Z,89.15
2017-01-12T05:27:37.317Z,89.63
2017-01-12T05:28:45.967Z,88.96
2017-01-12T05:29:54.622Z,89.44
2017-01-12T05:31:03.281Z,89.06
2017-01-12T05:32:11.939Z,90.39
2017-01-12T05:33:20.596Z,90.2
2017-01-12T05:34:29.257Z,89.34
2017-01-12T05:35:37.910Z,88.96
2017-01-12T05:36:46.565Z,88.87
2017-01-12T05:37:55.254Z,89.82
2017-01-12T05:39:03.913Z,90.01
2017-01-12T05:40:12.572Z,90.01
2017-01-12T05:41:21.232Z,90.48
2017-01-12T05:42:29.890Z,90.39
2017-01-12T05:43:38.545Z,90.2
2017-01-12T05:44:47.201Z,90.01
2017-01-12T05:45:55.863Z,90.1
2017-01-12T05:47:04.520Z,89.72
2017-01-12T05:48:13.187Z,89.06
2017-01-12T05:49:21.845Z,89.53
2017-01-12T05:50:30.509Z,89.72
2017-01-12T05:51:39.164Z,89.15
2017-01-12T05:52:47.824Z,90.39
2017-01-12T05:53:56.861Z,90.2
2017-01-12T05:55:05.511Z,90.01
2017-01-12T05:56:14.165Z,90.29
2017-01-12T05:57:22.819Z,90.86
2017-01-12T05:58:31.473Z,90.39
2017-01-12T05:59:40.131Z,90.2
2017-01-12T06:00:48.789Z,90.2
2017-01-12T06:01:57.474Z,90.39
2017-01-12T06:03:06.129Z,91.43
2017-01-12T06:04:14.786Z,90.53
2017-01-12T06:05:23.447Z,90.01
2017-01-12T06:06:32.104Z,90.39
2017-01-12T06:07:40.791Z,90.01
2017-01-12T06:08:49.453Z,90.77
2017-01-12T06:09:58.112Z,91
2017-01-12T06:11:06.767Z,91.38
2017-01-12T06:12:15.419Z,91.86
2017-01-12T06:13:24.082Z,91.86
2017-01-12T06:14:32.737Z,92.14
2017-01-12T06:15:41.421Z,91.19
2017-01-12T06:16:50.077Z,91.05
2017-01-12T06:17:58.731Z,91.71
2017-01-12T06:19:07.389Z,92.14
2017-01-12T06:20:16.053Z,91.76
2017-01-12T06:21:24.718Z,92.05
2017-01-12T06:22:33.396Z,91.29
2017-01-12T06:23:42.045Z,91.86
2017-01-12T06:24:50.696Z,91.19
2017-01-12T06:25:59.360Z,90.81
2017-01-12T06:27:08.017Z,90.63
2017-01-12T06:28:16.668Z,90.81
2017-01-12T06:29:25.328Z,91.48
2017-01-12T06:30:33.983Z,91.67
2017-01-12T06:31:42.640Z,92.24
2017-01-12T06:32:51.304Z,92.24
2017-01-12T06:33:59.964Z,92.24
2017-01-12T06:35:08.617Z,92.24
2017-01-12T06:36:17.271Z,92.05
2017-01-12T06:37:25.931Z,92.71
2017-01-12T06:38:34.591Z,92.99
2017-01-12T06:39:43.247Z,92.9
2017-01-12T06:40:51.908Z,92.24
2017-01-12T06:42:00.563Z,92.9
2017-01-12T06:43:09.215Z,92.8
2017-01-12T06:44:17.870Z,92.05
2017-01-12T06:45:26.526Z,92.05
2017-01-12T06:46:35.192Z,92.24
2017-01-12T06:47:43.844Z,91.57
2017-01-12T06:48:52.501Z,91.19
2017-01-12T06:50:01.163Z,91.29
2017-01-12T06:51:09.816Z,91.86
2017-01-12T06:52:18.467Z,92.43
2017-01-12T06:53:27.122Z,91.95
2017-01-12T06:54:35.784Z,92.14
2017-01-12T06:55:44.438Z,91.29
2017-01-12T06:56:53.097Z,91.38
2017-01-12T06:58:01.752Z,90.91
2017-01-12T06:59:10.409Z,91.1
2017-01-12T07:00:19.073Z,91.52
2017-01-12T07:01:27.733Z,90.44
2017-01-12T07:02:36.399Z,91.71
2017-01-12T07:03:45.055Z,91.52
2017-01-12T07:04:53.708Z,91.43
2017-01-12T07:06:02.362Z,91.1
2017-01-12T07:07:11.017Z,91.57
2017-01-12T07:08:19.667Z,91.33
2017-01-12T07:09:28.328Z,92.24
2017-01-12T07:10:36.986Z,91.38
2017-01-12T07:11:45.637Z,91.24
2017-01-12T07:12:54.294Z,90.67
2017-01-12T07:14:02.964Z,90.86
2017-01-12T07:15:11.618Z,91.33
2017-01-12T07:16:20.273Z,91.62
2017-01-12T07:17:28.929Z,91.9
2017-01-12T07:18:37.588Z,91.71
2017-01-12T07:19:46.243Z,91.62
2017-01-12T07:20:54.896Z,90.67
2017-01-12T07:22:03.550Z,90.29
2017-01-12T07:23:12.209Z,91.71
2017-01-12T07:24:20.872Z,92.09
2017-01-12T07:25:29.527Z,92.38
2017-01-12T07:26:38.180Z,90.58
2017-01-12T07:27:46.835Z,91.24
2017-01-12T07:28:55.499Z,91.14
2017-01-12T07:30:04.157Z,91.81
2017-01-12T07:31:12.813Z,90.86
2017-01-12T07:32:21.480Z,91.24
2017-01-12T07:33:30.138Z,91.33
2017-01-12T07:34:38.792Z,92.38
2017-01-12T07:35:47.461Z,91.38
2017-01-12T07:36:56.132Z,91.33
2017-01-12T07:38:04.789Z,91.43
2017-01-12T07:39:13.451Z,92.14
2017-01-12T07:40:22.100Z,91.76
2017-01-12T07:41:30.780Z,91.48
2017-01-12T07:42:39.432Z,91.43
2017-01-12T07:43:48.086Z,91.95
2017-01-12T07:44:56.763Z,92.43
2017-01-12T07:46:05.410Z,92.05
2017-01-12T07:47:14.065Z,92.61
2017-01-12T07:48:22.721Z,92.05
2017-01-12T07:49:31.377Z,92.52
2017-01-12T07:50:40.034Z,92.33
2017-01-12T07:51:48.685Z,92.71
2017-01-12T07:52:57.342Z,92.33
2017-01-12T07:54:06.007Z,92.43
2017-01-12T07:55:14.669Z,93.08
2017-01-12T07:56:23.713Z,92.71
2017-01-12T07:57:32.376Z,92.71
2017-01-12T07:58:41.032Z,92.33
2017-01-12T07:59:49.691Z,92.43
2017-01-12T08:00:58.377Z,92.8
2017-01-12T08:02:07.044Z,92.71
2017-01-12T08:03:15.731Z,93.08
2017-01-12T08:04:24.385Z,92.61
2017-01-12T08:05:33.047Z,92.9
2017-01-12T08:06:41.710Z,92.14
2017-01-12T08:07:50.368Z,92.24
2017-01-12T08:08:59.026Z,92.57
2017-01-12T08:10:07.682Z,92.61
2017-01-12T08:11:16.337Z,93.27
2017-01-12T08:12:24.999Z,93.27
2017-01-12T08:13:33.659Z,92.24
2017-01-12T08:14:42.319Z,92.71
2017-01-12T08:15:50.975Z,92.52
2017-01-12T08:16:59.654Z,92.33
2017-01-12T08:18:08.315Z,92.61
2017-01-12T08:19:16.973Z,92.71
2017-01-12T08:20:25.662Z,92.24
2017-01-12T08:21:34.326Z,92.05
2017-01-12T08:22:42.988Z,92.05
2017-01-12T08:23:51.640Z,92.52
2017-01-12T08:25:00.305Z,92.71
2017-01-12T08:26:08.962Z,92.33
2017-01-12T08:27:17.621Z,92.33
2017-01-12T08:28:26.274Z,92.24
2017-01-12T08:29:34.936Z,92.24
2017-01-12T08:30:43.596Z,92.52
2017-01-12T08:31:52.248Z,92.71
2017-01-12T08:33:00.910Z,92.52
2017-01-12T08:34:09.569Z,93.65
2017-01-12T08:35:18.225Z,93.65
2017-01-12T08:36:26.883Z,92.52
2017-01-12T08:37:35.541Z,92.57
2017-01-12T08:38:44.203Z,92.57
2017-01-12T08:39:52.867Z,93.27
2017-01-12T08:41:01.530Z,92.43
2017-01-12T08:42:10.193Z,92.05
2017-01-12T08:43:18.849Z,92.05
2017-01-12T08:44:27.509Z,92.47
2017-01-12T08:45:36.166Z,93.27
2017-01-12T08:46:44.821Z,93.56
2017-01-12T08:47:53.483Z,92.9
2017-01-12T08:49:02.141Z,92.33
2017-01-12T08:50:10.799Z,93.04
2017-01-12T08:51:19.454Z,92.38
2017-01-12T08:52:28.117Z,92.52
2017-01-12T08:53:36.774Z,91.95
2017-01-12T08:54:45.439Z,91.9
2017-01-12T08:55:54.104Z,92
2017-01-12T08:57:02.770Z,92.19
2017-01-12T08:58:11.427Z,93.13
2017-01-12T08:59:20.085Z,92.28
2017-01-12T09:00:28.754Z,91.43
2017-01-12T09:01:37.414Z,93.8
2017-01-12T09:02:46.074Z,92.28
2017-01-12T09:03:54.727Z,91.24
2017-01-12T09:05:03.384Z,91.43
2017-01-12T09:06:12.046Z,91.52
2017-01-12T09:07:20.705Z,91.14
2017-01-12T09:08:29.367Z,90.48
2017-01-12T09:09:38.023Z,91.52
2017-01-12T09:10:46.681Z,91.62
2017-01-12T09:11:55.341Z,90.86
2017-01-12T09:13:03.999Z,91.14
2017-01-12T09:14:12.656Z,90.86
2017-01-12T09:15:21.704Z,90.77
2017-01-12T09:16:30.366Z,90.29
2017-01-12T09:17:39.025Z,90.86
2017-01-12T09:18:47.686Z,91.05
2017-01-12T09:19:56.343Z,91.05
2017-01-12T09:21:05.007Z,91.05
2017-01-12T09:22:13.665Z,90.2
2017-01-12T09:23:22.322Z,90.01
2017-01-12T09:24:30.977Z,90.39
2017-01-12T09:25:39.635Z,91.43
2017-01-12T09:26:48.292Z,90.67
2017-01-12T09:27:56.949Z,91.52
2017-01-12T09:29:05.608Z,90.95
2017-01-12T09:30:14.275Z,91.43
2017-01-12T09:31:22.938Z,90.1
2017-01-12T09:32:31.602Z,90.2
2017-01-12T09:33:40.273Z,90.39
2017-01-12T09:34:48.931Z,90.29
2017-01-12T09:35:57.598Z,90.05
2017-01-12T09:37:06.261Z,90.67
2017-01-12T09:38:14.922Z,90.05
2017-01-12T09:39:23.580Z,90.05
2017-01-12T09:40:32.238Z,89.67
2017-01-12T09:41:40.901Z,89.48
2017-01-12T09:42:49.561Z,89.96
2017-01-12T09:43:58.217Z,89.39
2017-01-12T09:45:06.884Z,89.48
2017-01-12T09:46:15.544Z,90.34
2017-01-12T09:47:24.209Z,88.44
2017-01-12T09:48:32.869Z,88.73
2017-01-12T09:49:41.528Z,88.35
2017-01-12T09:50:50.189Z,88.63
2017-01-12T09:51:58.845Z,88.25
2017-01-12T09:53:07.508Z,87.59
2017-01-12T09:54:16.172Z,86.83
2017-01-12T09:55:24.837Z,87.73
2017-01-12T09:56:33.498Z,87.25
2017-01-12T09:57:42.190Z,86.78
2017-01-12T09:58:50.846Z,86.78
2017-01-12T09:59:59.512Z,86.4
2017-01-12T10:01:08.172Z,85.93
2017-01-12T10:02:16.838Z,86.4
2017-01-12T10:03:25.527Z,85.55
2017-01-12T10:04:34.186Z,86.3
2017-01-12T10:05:42.859Z,86.3
2017-01-12T10:06:51.520Z,84.5
2017-01-12T10:08:00.177Z,86.3
2017-01-12T10:09:08.839Z,85.07
2017-01-12T10:10:17.507Z,86.4
2017-01-12T10:11:26.167Z,86.02
2017-01-12T10:12:34.825Z,86.02
2017-01-12T10:13:43.518Z,89.62
2017-01-12T10:14:52.173Z,88.77
2017-01-12T10:16:01.756Z,88.2
2017-01-12T10:17:10.418Z,85.74
2017-01-12T10:18:19.086Z,86.87
2017-01-12T10:19:27.743Z,86.78
2017-01-12T10:20:36.399Z,86.11
2017-01-12T10:21:45.058Z,86.87
2017-01-12T10:22:53.726Z,87.82
2017-01-12T10:24:02.384Z,86.97
2017-01-12T10:25:11.043Z,87.35
2017-01-12T10:26:19.709Z,87.92
2017-01-12T10:27:28.374Z,87.25
2017-01-12T10:28:37.044Z,87.73
2017-01-12T10:29:45.725Z,88.87
2017-01-12T10:30:54.386Z,88.54
2017-01-12T10:32:03.051Z,88.73
2017-01-12T10:33:11.711Z,88.06
2017-01-12T10:34:20.386Z,87.87
2017-01-12T10:35:29.047Z,88.54
2017-01-12T10:36:37.714Z,88.54
2017-01-12T10:37:46.368Z,88.54
2017-01-12T10:38:55.026Z,88.73
2017-01-12T10:40:04.065Z,88.92
2017-01-12T10:41:12.760Z,89.39
2017-01-12T10:42:21.424Z,89.2
2017-01-12T10:43:30.082Z,89.39
2017-01-12T10:44:38.742Z,87.59
2017-01-12T10:45:47.401Z,87.54
2017-01-12T10:46:56.063Z,87.82
2017-01-12T10:48:04.722Z,88.58
2017-01-12T10:49:13.380Z,88.96
2017-01-12T10:50:22.035Z,87.92
2017-01-12T10:51:30.698Z,87.35
2017-01-12T10:52:39.365Z,86.11
2017-01-12T10:53:48.032Z,86.59
2017-01-12T10:54:56.694Z,86.3
2017-01-12T10:56:05.358Z,85.26
2017-01-12T10:57:14.020Z,85.17
2017-01-12T10:58:22.692Z,84.69
2017-01-12T10:59:31.354Z,85.55
2017-01-12T11:00:40.013Z,84.36
2017-01-12T11:01:48.677Z,85.21
2017-01-12T11:02:57.338Z,85.3
2017-01-12T11:04:06.000Z,84.74
2017-01-12T11:05:14.654Z,84.55
2017-01-12T11:06:23.313Z,83.78
2017-01-12T11:07:31.974Z,84.83
2017-01-12T11:08:40.645Z,84.83
2017-01-12T11:09:49.301Z,84.83
2017-01-12T11:10:57.960Z,85.21
2017-01-12T11:12:06.622Z,84.64
2017-01-12T11:13:15.290Z,84.45
2017-01-12T11:14:23.959Z,84.07
2017-01-12T11:15:32.619Z,82.65
2017-01-12T11:16:41.286Z,83.03
2017-01-12T11:17:49.950Z,85.02
2017-01-12T11:18:58.606Z,84.74
2017-01-12T11:20:07.268Z,84.92
2017-01-12T11:21:15.929Z,84.64
2017-01-12T11:22:24.592Z,85.11
2017-01-12T11:23:33.251Z,84.45
2017-01-12T11:24:41.914Z,84.45
2017-01-12T11:25:50.574Z,85.21
2017-01-12T11:26:59.237Z,82.36
2017-01-12T11:28:07.903Z,83.22
2017-01-12T11:29:16.571Z,84.83
2017-01-12T11:30:26.262Z,84.07
2017-01-12T11:31:34.918Z,83.59
2017-01-12T11:32:43.576Z,84.36
2017-01-12T11:33:52.236Z,84.64
2017-01-12T11:35:00.894Z,83.69
2017-01-12T11:36:09.560Z,82.74
2017-01-12T11:37:18.223Z,82.74
2017-01-12T11:38:26.883Z,83.59
2017-01-12T11:39:35.548Z,83.4
2017-01-12T11:40:44.215Z,84.26
2017-01-12T11:41:52.884Z,84.36
2017-01-12T11:43:01.551Z,82.93
2017-01-12T11:44:10.217Z,84.92
2017-01-12T11:45:18.874Z,83.4
2017-01-12T11:46:27.535Z,84.26
2017-01-12T11:47:36.198Z,84.92
2017-01-12T11:48:44.893Z,83.97
2017-01-12T11:49:53.550Z,83.4
2017-01-12T11:51:02.217Z,83.31
2017-01-12T11:52:10.905Z,83.4
2017-01-12T11:53:19.572Z,83.4
2017-01-12T11:54:28.235Z,83.5
2017-01-12T11:55:36.889Z,82.93
2017-01-12T11:56:45.548Z,83.97
2017-01-12T11:57:54.206Z,83.88
2017-01-12T11:59:02.869Z,84.07
2017-01-12T12:00:11.537Z,84.64
2017-01-12T12:01:20.200Z,83.22
2017-01-12T12:02:28.858Z,83.31
2017-01-12T12:03:37.515Z,82.93
2017-01-12T12:04:46.177Z,82.36
2017-01-12T12:05:54.848Z,82.74
2017-01-12T12:07:03.514Z,82.74
2017-01-12T12:08:12.180Z,84.26
2017-01-12T12:09:20.834Z,82.17
2017-01-12T12:10:29.495Z,81.04
2017-01-12T12:11:38.154Z,81.04
2017-01-12T12:12:46.823Z,81.26
2017-01-12T12:13:55.513Z,81.74
2017-01-12T12:15:04.180Z,81.65
2017-01-12T12:16:12.837Z,81.36
2017-01-12T12:17:21.497Z,81.07
2017-01-12T12:18:30.161Z,81.65
2017-01-12T12:19:38.831Z,80.6
2017-01-12T12:20:47.492Z,80.41
2017-01-12T12:21:56.155Z,79.74
2017-01-12T12:23:04.814Z,79.65
2017-01-12T12:24:13.474Z,79.17
2017-01-12T12:25:22.135Z,79.65
2017-01-12T12:26:31.500Z,80.13
2017-01-12T12:27:40.162Z,79.55
2017-01-12T12:28:48.851Z,79.36
2017-01-12T12:29:57.512Z,79.03
2017-01-12T12:31:06.174Z,79.12
2017-01-12T12:32:14.843Z,78.08
2017-01-12T12:33:23.918Z,78.64
2017-01-12T12:34:32.584Z,78.36
2017-01-12T12:35:41.253Z,78.55
2017-01-12T12:36:49.940Z,77.41
2017-01-12T12:37:58.616Z,76.56
2017-01-12T12:39:07.285Z,78.08
2017-01-12T12:40:15.953Z,78.55
2017-01-12T12:41:24.612Z,79.22
2017-01-12T12:42:33.271Z,78.55
2017-01-12T12:43:41.939Z,78.83
2017-01-12T12:44:50.594Z,79.46
2017-01-12T12:45:59.261Z,79.46
2017-01-12T12:47:07.957Z,80.41
2017-01-12T12:48:16.627Z,80.13
2017-01-12T12:49:25.316Z,81.36
2017-01-12T12:50:34.010Z,80.22
2017-01-12T12:51:42.681Z,79.17
2017-01-12T12:52:51.341Z,79.08
2017-01-12T12:54:00.005Z,79.46
2017-01-12T12:55:08.671Z,78.93
2017-01-12T12:56:17.341Z,79.03
2017-01-12T12:57:25.998Z,78.36
2017-01-12T12:58:34.655Z,79.46
2017-01-12T12:59:43.315Z,78.83
2017-01-12T13:00:51.973Z,79.27
2017-01-12T13:02:00.638Z,79.36
2017-01-12T13:03:09.293Z,80.13
2017-01-12T13:04:17.953Z,78.89
2017-01-12T13:05:26.617Z,79.5
2017-01-12T13:06:35.275Z,79.6
2017-01-12T13:07:43.940Z,79.84
2017-01-12T13:08:52.608Z,80.07
2017-01-12T13:10:01.276Z,79.88
2017-01-12T13:11:09.938Z,81.17
2017-01-12T13:12:18.597Z,80.22
2017-01-12T13:13:27.262Z,81.07
2017-01-12T13:14:35.923Z,80.88
2017-01-12T13:15:44.596Z,80.79
2017-01-12T13:16:53.261Z,80.6
2017-01-12T13:18:01.922Z,82.4
2017-01-12T13:19:10.580Z,82.78
2017-01-12T13:20:19.238Z,80.79
2017-01-12T13:21:27.909Z,81.12
2017-01-12T13:22:36.590Z,80.79
2017-01-12T13:23:45.640Z,79.79
2017-01-12T13:24:54.303Z,80.55
2017-01-12T13:26:03.357Z,79.88
2017-01-12T13:27:12.018Z,81.17
2017-01-12T13:28:20.709Z,80.51
2017-01-12T13:29:29.366Z,80.32
2017-01-12T13:30:38.024Z,80.69
2017-01-12T13:31:46.696Z,78.64
2017-01-12T13:32:55.355Z,79.27
2017-01-12T13:34:04.019Z,80.22
2017-01-12T13:35:12.684Z,80.79
2017-01-12T13:36:21.344Z,80.51
2017-01-12T13:37:30.013Z,79.46
2017-01-12T13:38:39.060Z,79.17
2017-01-12T13:39:47.735Z,79.27
2017-01-12T13:40:56.401Z,79.65
2017-01-12T13:42:05.064Z,80.6
2017-01-12T13:43:13.728Z,79.65
2017-01-12T13:44:22.392Z,80.13
2017-01-12T13:45:31.047Z,80.98
2017-01-12T13:46:39.711Z,80.88
2017-01-12T13:47:48.378Z,79.36
2017-01-12T13:48:57.044Z,80.22
2017-01-12T13:50:05.708Z,81.45
2017-01-12T13:51:14.368Z,81.07
2017-01-12T13:52:23.033Z,80.22
2017-01-12T13:53:31.700Z,78.99
2017-01-12T13:54:40.360Z,81.93
2017-01-12T13:55:49.019Z,81.17
2017-01-12T13:56:57.679Z,80.79
2017-01-12T13:58:06.340Z,79.36
2017-01-12T13:59:15.002Z,78.99
2017-01-12T14:00:23.676Z,80.32
2017-01-12T14:01:32.340Z,79.74
2017-01-12T14:02:41.000Z,79.55
2017-01-12T14:03:50.040Z,80.41
2017-01-12T14:04:58.732Z,81.55
2017-01-12T14:06:07.400Z,80.79
2017-01-12T14:07:16.070Z,80.79
2017-01-12T14:08:24.731Z,80.51
2017-01-12T14:09:33.420Z,80.6
2017-01-12T14:10:42.086Z,80.6
2017-01-12T14:11:50.744Z,81.07
2017-01-12T14:12:59.403Z,79.84
2017-01-12T14:14:08.094Z,79.17
2017-01-12T14:15:16.764Z,80.79
2017-01-12T14:16:25.422Z,81.45
2017-01-12T14:17:34.091Z,80.13
2017-01-12T14:18:42.755Z,81.36
2017-01-12T14:19:51.426Z,80.69
2017-01-12T14:21:00.084Z,79.55
2017-01-12T14:22:08.751Z,80.32
2017-01-12T14:23:17.423Z,81.74
2017-01-12T14:24:26.082Z,81.26
2017-01-12T14:25:34.739Z,81.74
2017-01-12T14:26:43.400Z,81.74
2017-01-12T14:27:52.089Z,80.64
2017-01-12T14:29:00.744Z,81.45
2017-01-12T14:30:09.406Z,84.44
2017-01-12T14:31:18.063Z,84.87
2017-01-12T14:32:26.753Z,81.97
2017-01-12T14:33:35.804Z,81.87
2017-01-12T14:34:44.466Z,81.68
2017-01-12T14:35:53.127Z,84.16
2017-01-12T14:37:01.787Z,84.44
2017-01-12T14:38:10.453Z,84.06
2017-01-12T14:39:19.126Z,84.44
2017-01-12T14:40:27.804Z,81.87
2017-01-12T14:41:36.499Z,82.07
2017-01-12T14:42:45.158Z,80.83
2017-01-12T14:43:53.818Z,81.97
2017-01-12T14:45:02.481Z,81.78
2017-01-12T14:46:11.143Z,82.03
2017-01-12T14:47:19.802Z,82.12